createdAt,value
2023-03-06T00:00:34.704Z,10.62
2023-03-06T00:06:18.839Z,10.61
2023-03-06T00:12:02.562Z,10.6
2023-03-06T00:17:46.712Z,10.61
2023-03-06T00:23:30.470Z,10.57
2023-03-06T00:29:14.284Z,10.55
2023-03-06T00:34:58.120Z,10.52
2023-03-06T00:40:43.028Z,10.51
2023-03-06T00:46:26.679Z,10.56
2023-03-06T00:52:10.560Z,10.52
2023-03-06T00:57:54.279Z,10.49
2023-03-06T01:03:37.963Z,10.46
2023-03-06T01:09:21.687Z,10.46
2023-03-06T01:15:06.617Z,10.46
2023-03-06T01:20:50.426Z,10.43
2023-03-06T01:26:34.406Z,10.4
2023-03-06T01:32:18.294Z,10.38
2023-03-06T01:38:02.059Z,10.36
2023-03-06T01:43:46.221Z,10.39
2023-03-06T01:49:31.784Z,10.38
2023-03-06T01:55:17.298Z,10.39
2023-03-06T02:01:01.038Z,10.39
2023-03-06T02:06:45.185Z,10.34
2023-03-06T02:12:28.884Z,10.4
2023-03-06T02:18:12.960Z,10.38
2023-03-06T02:24:08.363Z,10.33
2023-03-06T02:29:52.972Z,10.34
2023-03-06T02:35:38.904Z,10.32
2023-03-06T02:41:22.738Z,10.29
2023-03-06T02:47:06.422Z,10.29
2023-03-06T02:52:50.268Z,10.26
2023-03-06T02:58:34.159Z,10.24
2023-03-06T03:04:17.952Z,10.25
2023-03-06T03:10:01.667Z,10.22
2023-03-06T03:15:45.299Z,10.22
2023-03-06T03:21:29.306Z,10.21
2023-03-06T03:27:13.394Z,10.18
2023-03-06T03:32:57.062Z,10.17
2023-03-06T03:38:40.741Z,10.15
2023-03-06T03:44:24.374Z,10.16
2023-03-06T03:50:09.724Z,10.14
2023-03-06T03:55:53.335Z,10.13
2023-03-06T04:01:39.510Z,10.12
2023-03-06T04:07:23.308Z,10.12
2023-03-06T04:13:09.559Z,10.11
2023-03-06T04:18:53.729Z,10.09
2023-03-06T04:24:37.316Z,10.06
2023-03-06T04:30:21.109Z,10.05
2023-03-06T04:36:05.307Z,10.04
2023-03-06T04:41:49.063Z,10.02
2023-03-06T04:47:33.407Z,10.03
2023-03-06T04:53:17.191Z,10.01
2023-03-06T04:59:01.795Z,10
2023-03-06T05:04:45.542Z,10.01
2023-03-06T05:10:29.276Z,10
2023-03-06T05:16:13.347Z,10
2023-03-06T05:21:57.124Z,9.97
2023-03-06T05:27:41.167Z,9.97
2023-03-06T05:33:24.899Z,9.97
2023-03-06T05:39:08.836Z,9.97
2023-03-06T05:44:52.587Z,10.16
2023-03-06T05:50:36.313Z,10.09
2023-03-06T05:56:20.124Z,10.07
2023-03-06T06:02:04.147Z,10.02
2023-03-06T06:07:48.203Z,10.02
2023-03-06T06:13:32.011Z,10.02
2023-03-06T06:19:16.666Z,10.02
2023-03-06T06:25:00.271Z,10.02
2023-03-06T06:30:44.025Z,9.98
2023-03-06T06:36:28.396Z,9.95
2023-03-06T06:42:29.262Z,9.96
2023-03-06T06:48:17.521Z,10.04
2023-03-06T06:54:01.790Z,10.02
2023-03-06T06:59:45.446Z,10.02
2023-03-06T07:05:29.135Z,10.04
2023-03-06T07:11:14.791Z,10.07
2023-03-06T07:16:58.600Z,10.09
2023-03-06T07:22:50.636Z,10.12
2023-03-06T07:28:46.275Z,10.17
2023-03-06T07:34:34.179Z,10.24
2023-03-06T07:40:18.562Z,10.27
2023-03-06T07:46:02.234Z,10.35
2023-03-06T07:51:46.059Z,10.42
2023-03-06T07:57:29.936Z,10.53
2023-03-06T08:03:14.057Z,10.64
2023-03-06T08:08:58.566Z,10.77
2023-03-06T08:14:42.497Z,10.88
2023-03-06T08:20:26.335Z,10.97
2023-03-06T08:26:10.851Z,11.04
2023-03-06T08:31:54.552Z,11.11
2023-03-06T08:37:38.361Z,11.25
2023-03-06T08:43:22.116Z,11.34
2023-03-06T08:49:05.797Z,11.4
2023-03-06T08:54:49.546Z,11.41
2023-03-06T09:00:33.433Z,11.47
2023-03-06T09:06:17.452Z,11.66
2023-03-06T09:12:01.257Z,11.72
2023-03-06T09:17:44.963Z,11.72
2023-03-06T09:23:28.982Z,11.8
2023-03-06T09:29:13.376Z,11.97
2023-03-06T09:34:57.209Z,12.12
2023-03-06T09:40:45.052Z,12.23
2023-03-06T09:46:35.853Z,12.43
2023-03-06T09:52:30.778Z,12.61
2023-03-06T09:58:16.942Z,12.89
2023-03-06T10:04:04.769Z,13.25
2023-03-06T10:09:51.790Z,13.43
2023-03-06T10:15:36.967Z,13.73
2023-03-06T10:21:27.115Z,13.87
2023-03-06T10:27:15.492Z,13.94
2023-03-06T10:33:03.037Z,14.01
2023-03-06T10:38:48.038Z,13.87
2023-03-06T10:44:31.723Z,13.83
2023-03-06T10:50:22.987Z,13.85
2023-03-06T10:56:06.723Z,14.06
2023-03-06T11:01:51.545Z,14.19
2023-03-06T11:07:35.987Z,14.3
2023-03-06T11:13:23.716Z,14.36
2023-03-06T11:19:12.589Z,14.45
2023-03-06T11:24:56.691Z,14.45
2023-03-06T11:30:42.795Z,14.54
2023-03-06T11:36:29.952Z,14.79
2023-03-06T11:42:17.114Z,14.97
2023-03-06T11:48:06.735Z,15.15
2023-03-06T11:53:50.549Z,15.1
2023-03-06T11:59:46.234Z,15.32
2023-03-06T12:05:33.115Z,15.73
2023-03-06T12:11:20.115Z,16.21
2023-03-06T12:17:09.281Z,16.34
2023-03-06T12:22:58.202Z,16.53
2023-03-06T12:29:05.468Z,16.96
2023-03-06T12:34:56.164Z,16.81
2023-03-06T12:40:48.558Z,16.63
2023-03-06T12:46:35.684Z,16.68
2023-03-06T12:52:28.508Z,16.83
2023-03-06T12:58:25.016Z,16.88
2023-03-06T13:04:20.035Z,16.87
2023-03-06T13:10:19.722Z,16.74
2023-03-06T13:16:21.805Z,16.67
2023-03-06T13:22:10.678Z,16.47
2023-03-06T13:28:03.621Z,16.28
2023-03-06T13:34:00.566Z,16.13
2023-03-06T13:39:55.080Z,16.06
2023-03-06T13:45:40.983Z,16.14
2023-03-06T13:51:27.962Z,16.21
2023-03-06T13:57:32.797Z,16.15
2023-03-06T14:03:28.098Z,16.16
2023-03-06T14:09:16.770Z,16.13
2023-03-06T14:15:03.579Z,16.23
2023-03-06T14:20:49.058Z,16.67
2023-03-06T14:26:34.182Z,16.85
2023-03-06T14:32:21.205Z,16.87
2023-03-06T14:38:05.632Z,17.11
2023-03-06T14:43:49.907Z,17.15
2023-03-06T14:49:34.340Z,16.87
2023-03-06T14:55:19.823Z,16.79
2023-03-06T15:01:05.681Z,17.04
2023-03-06T15:06:49.555Z,17.16
2023-03-06T15:12:38.047Z,16.98
2023-03-06T15:18:31.740Z,16.89
2023-03-06T15:24:27.068Z,16.78
2023-03-06T15:30:21.392Z,16.65
2023-03-06T15:36:06.888Z,16.47
2023-03-06T15:41:55.279Z,16.35
2023-03-06T15:47:38.994Z,16.27
2023-03-06T15:53:22.829Z,16.11
2023-03-06T15:59:07.423Z,15.89
2023-03-06T16:04:51.458Z,15.74
2023-03-06T16:10:39.083Z,15.62
2023-03-06T16:16:27.736Z,15.52
2023-03-06T16:22:11.667Z,15.4
2023-03-06T16:27:57.297Z,15.29
2023-03-06T16:33:40.892Z,15.16
2023-03-06T16:39:24.601Z,15.08
2023-03-06T16:45:09.307Z,15.01
2023-03-06T16:50:53.040Z,14.88
2023-03-06T16:56:36.889Z,14.77
2023-03-06T17:02:20.769Z,14.66
2023-03-06T17:08:04.726Z,14.52
2023-03-06T17:13:49.883Z,14.42
2023-03-06T17:19:33.601Z,14.33
2023-03-06T17:25:17.262Z,14.25
2023-03-06T17:31:01.104Z,14.15
2023-03-06T17:36:45.144Z,14.05
2023-03-06T17:42:28.708Z,13.99
2023-03-06T17:48:12.251Z,13.93
2023-03-06T17:53:55.961Z,13.85
2023-03-06T17:59:39.650Z,13.76
2023-03-06T18:05:23.519Z,13.66
2023-03-06T18:11:08.340Z,13.57
2023-03-06T18:16:52.062Z,13.51
2023-03-06T18:22:35.818Z,13.46
2023-03-06T18:28:19.459Z,13.35
2023-03-06T18:34:05.378Z,13.26
2023-03-06T18:39:50.069Z,13.22
2023-03-06T18:45:48.450Z,13.2
2023-03-06T18:51:32.418Z,13.11
2023-03-06T18:57:16.207Z,12.99
2023-03-06T19:02:59.907Z,12.9
2023-03-06T19:08:44.162Z,12.84
2023-03-06T19:14:27.895Z,12.9
2023-03-06T19:20:12.294Z,12.77
2023-03-06T19:25:59.729Z,12.61
2023-03-06T19:31:43.782Z,12.52
2023-03-06T19:37:27.778Z,12.44
2023-03-06T19:43:11.351Z,12.4
2023-03-06T19:48:58.544Z,12.33
2023-03-06T19:54:42.397Z,12.27
2023-03-06T20:00:26.320Z,12.23
2023-03-06T20:06:12.419Z,12.19
2023-03-06T20:11:56.272Z,12.16
2023-03-06T20:17:40.091Z,12.11
2023-03-06T20:23:25.739Z,12.07
2023-03-06T20:29:09.911Z,12.03
2023-03-06T20:34:53.561Z,11.99
2023-03-06T20:40:40.789Z,11.95
2023-03-06T20:46:27.692Z,11.93
2023-03-06T20:52:11.442Z,11.9
2023-03-06T20:57:55.162Z,11.89
2023-03-06T21:03:38.810Z,11.86
2023-03-06T21:09:22.459Z,11.87
2023-03-06T21:15:06.946Z,11.89
2023-03-06T21:20:51.510Z,11.83
2023-03-06T21:26:35.263Z,11.79
2023-03-06T21:32:19.008Z,11.74
2023-03-06T21:38:02.927Z,11.75
2023-03-06T21:43:47.017Z,11.75
2023-03-06T21:49:30.746Z,11.73
2023-03-06T21:55:14.236Z,11.75
2023-03-06T22:00:57.851Z,11.73
2023-03-06T22:06:42.760Z,11.74
2023-03-06T22:12:27.639Z,11.81
2023-03-06T22:18:11.313Z,11.81
2023-03-06T22:23:55.592Z,11.8
2023-03-06T22:29:39.254Z,11.77
2023-03-06T22:35:22.989Z,11.75
2023-03-06T22:41:06.984Z,11.72
2023-03-06T22:46:50.679Z,11.81
2023-03-06T22:52:34.295Z,11.72
2023-03-06T22:58:18.067Z,11.68
2023-03-06T23:04:02.894Z,11.67
2023-03-06T23:09:46.895Z,11.65
2023-03-06T23:15:30.909Z,11.88
2023-03-06T23:21:15.825Z,11.8
2023-03-06T23:26:59.794Z,11.69
2023-03-06T23:32:45.503Z,11.64
2023-03-06T23:38:29.823Z,11.55
2023-03-06T23:44:13.508Z,11.51
2023-03-06T23:49:57.095Z,11.47
2023-03-06T23:55:44.659Z,11.46
